Terminal Aerodrome Forecast
Issued by NWS Portland, ME

Home | Current Version | Previous Version | Text Only | Print | Product List | Glossary On
Versions: 1 2 3 4 5 6 7 8 9 10 11 12 13 14 15 16 17 18
000
FTUS41 KGYX 062322
TAFPWM
TAF
KPWM 062322Z 0700/0724 19006KT P6SM SKC
     FM071200 16006KT P6SM SCT100 OVC250
     FM071900 17010KT P6SM BKN050 OVC100
     FM072300 17012KT 5SM -SHRA OVC030=

USA.gov is the U.S. government's official web portal to all federal, state and local government web resources and services.